CMP209 SKBO-MPTO
Flight info
| Callsign | CMP209 |
|---|---|
| Flight time | N/A |
| Altitude | 38000 |
| Route | TOBKI1S VASIL UL423 PULOX DCT SIGUN ISOKO2A |
| Aircraft | B38M/M-SDE1FGHILORVWXY/HB1 |
Departure
| Time | 2026-05-05 16:37 |
|---|---|
| Airport | El Dorado International Airport (SKBO) |
Arrival
| Time | N/A |
|---|---|
| Airport | Tocumen International Airport (MPTO) |
| Time | Latitude | Longitude | Altitude | Speed | Heading |
|---|---|---|---|---|---|
| 2026-05-05 16:23 | 4.69901 | -74.14020 | 8374 ft | 0 kts | 215° |
| 2026-05-05 16:26 | 4.69936 | -74.13996 | 8375 ft | 4 kts | 215° |
| 2026-05-05 16:27 | 4.69957 | -74.13980 | 8374 ft | 4 kts | 220° |
| 2026-05-05 16:27 | 4.69968 | -74.13968 | 8375 ft | 2 kts | 253° |
| 2026-05-05 16:27 | 4.69967 | -74.13958 | 8374 ft | 2 kts | 300° |
| 2026-05-05 16:27 | 4.69963 | -74.13951 | 8374 ft | 0 kts | 305° |
| 2026-05-05 16:31 | 4.69964 | -74.13953 | 8374 ft | 1 kts | 305° |
| 2026-05-05 16:31 | 4.69968 | -74.13959 | 8374 ft | 2 kts | 305° |
| 2026-05-05 16:32 | 4.69978 | -74.13973 | 8374 ft | 3 kts | 305° |
| 2026-05-05 16:32 | 4.69993 | -74.13993 | 8375 ft | 4 kts | 305° |
| 2026-05-05 16:32 | 4.70020 | -74.14026 | 8375 ft | 5 kts | 319° |
| 2026-05-05 16:32 | 4.70044 | -74.14035 | 8374 ft | 10 kts | 353° |
| 2026-05-05 16:33 | 4.70123 | -74.13989 | 8375 ft | 15 kts | 27° |
| 2026-05-05 16:33 | 4.70202 | -74.14033 | 8373 ft | 14 kts | 306° |
| 2026-05-05 16:33 | 4.70280 | -74.14136 | 8375 ft | 25 kts | 307° |
| 2026-05-05 16:33 | 4.70400 | -74.14295 | 8375 ft | 31 kts | 307° |
| 2026-05-05 16:34 | 4.70527 | -74.14462 | 8375 ft | 29 kts | 308° |
| 2026-05-05 16:34 | 4.70649 | -74.14624 | 8376 ft | 29 kts | 307° |
| 2026-05-05 16:34 | 4.70771 | -74.14784 | 8373 ft | 29 kts | 307° |
| 2026-05-05 16:34 | 4.70890 | -74.14944 | 8373 ft | 28 kts | 308° |
| 2026-05-05 16:35 | 4.71010 | -74.15102 | 8375 ft | 28 kts | 307° |
| 2026-05-05 16:35 | 4.71126 | -74.15217 | 8374 ft | 21 kts | 350° |
| 2026-05-05 16:35 | 4.71229 | -74.15231 | 8374 ft | 2 kts | 353° |
| 2026-05-05 16:35 | 4.71270 | -74.15233 | 8374 ft | 11 kts | 4° |
| 2026-05-05 16:36 | 4.71316 | -74.15181 | 8372 ft | 11 kts | 109° |
| 2026-05-05 16:36 | 4.71239 | -74.15077 | 8374 ft | 39 kts | 127° |
| 2026-05-05 16:36 | 4.70967 | -74.14718 | 8373 ft | 89 kts | 127° |
| 2026-05-05 16:36 | 4.70506 | -74.14107 | 8373 ft | 130 kts | 127° |
| 2026-05-05 16:37 | 4.69890 | -74.13299 | 8375 ft | 161 kts | 128° |
| 2026-05-05 16:37 | 4.69193 | -74.12379 | 8669 ft | 166 kts | 129° |
| 2026-05-05 16:37 | 4.68471 | -74.11489 | 9223 ft | 167 kts | 142° |
| 2026-05-05 16:37 | 4.67339 | -74.11127 | 9402 ft | 183 kts | 182° |
| 2026-05-05 16:38 | 4.66118 | -74.11554 | 9658 ft | 193 kts | 213° |
| 2026-05-05 16:38 | 4.65302 | -74.12593 | 9990 ft | 195 kts | 247° |
| 2026-05-05 16:38 | 4.64772 | -74.13890 | 10476 ft | 207 kts | 244° |
| 2026-05-05 16:38 | 4.64147 | -74.15268 | 10856 ft | 227 kts | 244° |
| 2026-05-05 16:39 | 4.63482 | -74.16702 | 11555 ft | 229 kts | 242° |
| 2026-05-05 16:39 | 4.62791 | -74.18178 | 12145 ft | 239 kts | 241° |
| 2026-05-05 16:39 | 4.62069 | -74.19707 | 12641 ft | 249 kts | 241° |
| 2026-05-05 16:39 | 4.61418 | -74.21379 | 13078 ft | 268 kts | 255° |
| 2026-05-05 16:40 | 4.61052 | -74.23286 | 13517 ft | 288 kts | 257° |
| 2026-05-05 16:40 | 4.60672 | -74.25330 | 13936 ft | 308 kts | 257° |
| 2026-05-05 16:40 | 4.60287 | -74.27521 | 14305 ft | 329 kts | 262° |
| 2026-05-05 16:40 | 4.60168 | -74.29885 | 14617 ft | 351 kts | 266° |
| 2026-05-05 16:41 | 4.60047 | -74.32396 | 14882 ft | 371 kts | 265° |
| 2026-05-05 16:41 | 4.59901 | -74.35045 | 15146 ft | 388 kts | 266° |
| 2026-05-05 16:41 | 4.59739 | -74.37749 | 15532 ft | 397 kts | 265° |
| 2026-05-05 16:41 | 4.59737 | -74.40519 | 16169 ft | 400 kts | 278° |
| 2026-05-05 16:42 | 4.60391 | -74.43244 | 16762 ft | 403 kts | 285° |
| 2026-05-05 16:42 | 4.61136 | -74.45967 | 17356 ft | 406 kts | 286° |
| 2026-05-05 16:42 | 4.61905 | -74.48713 | 17932 ft | 410 kts | 287° |
| 2026-05-05 16:42 | 4.62688 | -74.51472 | 18423 ft | 413 kts | 287° |
| 2026-05-05 16:43 | 4.63481 | -74.54248 | 18930 ft | 415 kts | 287° |
| 2026-05-05 16:43 | 4.64287 | -74.57038 | 19439 ft | 418 kts | 289° |
| 2026-05-05 16:43 | 4.65530 | -74.59661 | 19914 ft | 417 kts | 305° |
| 2026-05-05 16:43 | 4.67441 | -74.61832 | 20369 ft | 417 kts | 321° |
| 2026-05-05 16:44 | 4.69834 | -74.63394 | 20810 ft | 416 kts | 336° |
| 2026-05-05 16:44 | 4.72573 | -74.64345 | 21225 ft | 417 kts | 346° |
| 2026-05-05 16:44 | 4.75394 | -74.65086 | 21688 ft | 419 kts | 347° |
| 2026-05-05 16:44 | 4.78241 | -74.65770 | 22145 ft | 422 kts | 349° |
| 2026-05-05 16:45 | 4.81104 | -74.66427 | 22610 ft | 423 kts | 349° |
| 2026-05-05 16:45 | 4.83919 | -74.67311 | 22980 ft | 429 kts | 335° |
| 2026-05-05 16:45 | 4.86440 | -74.68923 | 23490 ft | 431 kts | 325° |
| 2026-05-05 16:45 | 4.88849 | -74.70731 | 23797 ft | 435 kts | 325° |
| 2026-05-05 16:46 | 4.91239 | -74.72558 | 24131 ft | 437 kts | 324° |
| 2026-05-05 16:46 | 4.93503 | -74.74615 | 24441 ft | 444 kts | 312° |
| 2026-05-05 16:46 | 4.95187 | -74.77221 | 24826 ft | 447 kts | 298° |
| 2026-05-05 16:46 | 4.96619 | -74.80000 | 25120 ft | 451 kts | 299° |
| 2026-05-05 16:47 | 4.98040 | -74.82818 | 25441 ft | 454 kts | 298° |
| 2026-05-05 16:47 | 4.99450 | -74.85663 | 25824 ft | 455 kts | 297° |
| 2026-05-05 16:47 | 5.00843 | -74.88507 | 26181 ft | 457 kts | 297° |
| 2026-05-05 16:47 | 5.02243 | -74.91381 | 26463 ft | 461 kts | 298° |
| 2026-05-05 16:48 | 5.03659 | -74.94291 | 26656 ft | 467 kts | 297° |
| 2026-05-05 16:48 | 5.05084 | -74.97218 | 27049 ft | 467 kts | 298° |
| 2026-05-05 16:48 | 5.06513 | -75.00157 | 27379 ft | 470 kts | 297° |
| 2026-05-05 16:48 | 5.07950 | -75.03110 | 27765 ft | 471 kts | 298° |
| 2026-05-05 16:49 | 5.09394 | -75.06077 | 27981 ft | 476 kts | 297° |
| 2026-05-05 16:49 | 5.10847 | -75.09064 | 28439 ft | 475 kts | 297° |
| 2026-05-05 16:49 | 5.12295 | -75.12043 | 28803 ft | 476 kts | 297° |
| 2026-05-05 16:49 | 5.13754 | -75.15042 | 29059 ft | 481 kts | 297° |
| 2026-05-05 16:50 | 5.15280 | -75.18030 | 29365 ft | 482 kts | 303° |
| 2026-05-05 16:50 | 5.17350 | -75.20660 | 29791 ft | 479 kts | 313° |
| 2026-05-05 16:50 | 5.19549 | -75.23204 | 29976 ft | 485 kts | 312° |
| 2026-05-05 16:50 | 5.21743 | -75.25726 | 30324 ft | 485 kts | 313° |
| 2026-05-05 16:51 | 5.23982 | -75.28272 | 30565 ft | 488 kts | 313° |
| 2026-05-05 16:51 | 5.26241 | -75.30831 | 30803 ft | 490 kts | 313° |
| 2026-05-05 16:51 | 5.28508 | -75.33395 | 31039 ft | 492 kts | 313° |
| 2026-05-05 16:51 | 5.30786 | -75.35972 | 31276 ft | 493 kts | 313° |
| 2026-05-05 16:52 | 5.33062 | -75.38546 | 31615 ft | 491 kts | 313° |
| 2026-05-05 16:52 | 5.35336 | -75.41118 | 31918 ft | 491 kts | 313° |
| 2026-05-05 16:52 | 5.37599 | -75.43679 | 32235 ft | 490 kts | 313° |
| 2026-05-05 16:52 | 5.39854 | -75.46231 | 32580 ft | 488 kts | 313° |
| 2026-05-05 16:53 | 5.42107 | -75.48781 | 32936 ft | 487 kts | 313° |
| 2026-05-05 16:53 | 5.44348 | -75.51318 | 33319 ft | 485 kts | 313° |
| 2026-05-05 16:53 | 5.46585 | -75.53850 | 33728 ft | 483 kts | 313° |
| 2026-05-05 16:53 | 5.48806 | -75.56364 | 34116 ft | 481 kts | 313° |
| 2026-05-05 16:54 | 5.51026 | -75.58878 | 34440 ft | 481 kts | 313° |
| 2026-05-05 16:54 | 5.53243 | -75.61389 | 34739 ft | 480 kts | 313° |
| 2026-05-05 16:54 | 5.55458 | -75.63898 | 35054 ft | 480 kts | 313° |
| 2026-05-05 16:54 | 5.57670 | -75.66403 | 35340 ft | 479 kts | 313° |
| 2026-05-05 16:55 | 5.59881 | -75.68907 | 35664 ft | 478 kts | 313° |
| 2026-05-05 16:55 | 5.62083 | -75.71403 | 35925 ft | 479 kts | 313° |
| 2026-05-05 16:55 | 5.64295 | -75.73910 | 36209 ft | 479 kts | 313° |
| 2026-05-05 16:55 | 5.66506 | -75.76416 | 36517 ft | 478 kts | 313° |
| 2026-05-05 16:56 | 5.68714 | -75.78918 | 36778 ft | 478 kts | 312° |
| 2026-05-05 16:56 | 5.70876 | -75.81397 | 37090 ft | 477 kts | 310° |
| 2026-05-05 16:56 | 5.73021 | -75.83991 | 37441 ft | 475 kts | 310° |
| 2026-05-05 16:56 | 5.75098 | -75.86495 | 37869 ft | 472 kts | 310° |
| 2026-05-05 16:57 | 5.77201 | -75.89022 | 38023 ft | 472 kts | 310° |
| 2026-05-05 16:57 | 5.79302 | -75.91546 | 38009 ft | 468 kts | 310° |
| 2026-05-05 16:57 | 5.83447 | -75.96525 | 38018 ft | 463 kts | 310° |
| 2026-05-05 16:58 | 5.87574 | -76.01483 | 38010 ft | 462 kts | 310° |
| 2026-05-05 16:58 | 5.91695 | -76.06435 | 38011 ft | 462 kts | 310° |
| 2026-05-05 16:59 | 5.95807 | -76.11378 | 38003 ft | 459 kts | 310° |
| 2026-05-05 16:59 | 5.99907 | -76.16308 | 38002 ft | 460 kts | 310° |
| 2026-05-05 17:00 | 6.03993 | -76.21223 | 38022 ft | 461 kts | 310° |
| 2026-05-05 17:00 | 6.08102 | -76.26165 | 37999 ft | 461 kts | 311° |
| 2026-05-05 17:01 | 6.12218 | -76.31118 | 37996 ft | 461 kts | 311° |
| 2026-05-05 17:01 | 6.16335 | -76.36075 | 37984 ft | 461 kts | 310° |
| 2026-05-05 17:02 | 6.20439 | -76.41016 | 37987 ft | 461 kts | 310° |
| 2026-05-05 17:02 | 6.24537 | -76.45950 | 37982 ft | 459 kts | 310° |
| 2026-05-05 17:03 | 6.28609 | -76.50854 | 37959 ft | 460 kts | 310° |
| 2026-05-05 17:03 | 6.32681 | -76.55762 | 37944 ft | 454 kts | 310° |
| 2026-05-05 17:04 | 6.36728 | -76.60639 | 37955 ft | 455 kts | 311° |
| 2026-05-05 17:04 | 6.40782 | -76.65527 | 37935 ft | 455 kts | 310° |
| 2026-05-05 17:05 | 6.44834 | -76.70412 | 37935 ft | 455 kts | 310° |
| 2026-05-05 17:05 | 6.48845 | -76.75252 | 37934 ft | 450 kts | 310° |
| 2026-05-05 17:06 | 6.52842 | -76.80073 | 37924 ft | 448 kts | 310° |
| 2026-05-05 17:06 | 6.56843 | -76.84901 | 37925 ft | 449 kts | 311° |
| 2026-05-05 17:07 | 6.60845 | -76.89733 | 37928 ft | 452 kts | 311° |
| 2026-05-05 17:07 | 6.64854 | -76.94575 | 37927 ft | 447 kts | 311° |
| 2026-05-05 17:08 | 6.68836 | -76.99385 | 37918 ft | 447 kts | 310° |
| 2026-05-05 17:08 | 6.72812 | -77.04189 | 37924 ft | 447 kts | 310° |
| 2026-05-05 17:09 | 6.76767 | -77.08969 | 37925 ft | 447 kts | 310° |
| 2026-05-05 17:09 | 6.80746 | -77.13779 | 37926 ft | 447 kts | 310° |
| 2026-05-05 17:10 | 6.84720 | -77.18585 | 37927 ft | 447 kts | 310° |
| 2026-05-05 17:10 | 6.88693 | -77.23390 | 37931 ft | 446 kts | 311° |
| 2026-05-05 17:11 | 6.92670 | -77.28203 | 37934 ft | 446 kts | 311° |
| 2026-05-05 17:11 | 6.96641 | -77.33009 | 37931 ft | 446 kts | 311° |
| 2026-05-05 17:12 | 7.00587 | -77.37785 | 37939 ft | 446 kts | 311° |
| 2026-05-05 17:12 | 7.04561 | -77.42598 | 37938 ft | 446 kts | 311° |
| 2026-05-05 17:13 | 7.08532 | -77.47408 | 37938 ft | 446 kts | 311° |
| 2026-05-05 17:13 | 7.12500 | -77.52217 | 37949 ft | 446 kts | 311° |
| 2026-05-05 17:14 | 7.16473 | -77.57032 | 37943 ft | 446 kts | 310° |
| 2026-05-05 17:14 | 7.20441 | -77.61843 | 37943 ft | 446 kts | 311° |
| 2026-05-05 17:15 | 7.24411 | -77.66658 | 37942 ft | 446 kts | 311° |
| 2026-05-05 17:15 | 7.28354 | -77.71441 | 37944 ft | 446 kts | 311° |
| 2026-05-05 17:16 | 7.32324 | -77.76259 | 37944 ft | 446 kts | 311° |
| 2026-05-05 17:16 | 7.36285 | -77.81067 | 37943 ft | 446 kts | 311° |
| 2026-05-05 17:17 | 7.40310 | -77.85821 | 37859 ft | 442 kts | 312° |
| 2026-05-05 17:17 | 7.42325 | -77.88149 | 37264 ft | 442 kts | 312° |
| 2026-05-05 17:17 | 7.44352 | -77.90499 | 36559 ft | 446 kts | 312° |
| 2026-05-05 17:18 | 7.46395 | -77.92868 | 35975 ft | 449 kts | 312° |
| 2026-05-05 17:18 | 7.48451 | -77.95253 | 35486 ft | 452 kts | 312° |
| 2026-05-05 17:18 | 7.50514 | -77.97647 | 34972 ft | 452 kts | 312° |
| 2026-05-05 17:18 | 7.52579 | -78.00045 | 34390 ft | 453 kts | 313° |
| 2026-05-05 17:19 | 7.54651 | -78.02450 | 33857 ft | 455 kts | 312° |
| 2026-05-05 17:19 | 7.56031 | -78.04053 | 33447 ft | 457 kts | 312° |
| 2026-05-05 17:19 | 7.58118 | -78.06477 | 32852 ft | 459 kts | 312° |
| 2026-05-05 17:19 | 7.60214 | -78.08911 | 32301 ft | 461 kts | 312° |
| 2026-05-05 17:20 | 7.62317 | -78.11354 | 31759 ft | 462 kts | 312° |
| 2026-05-05 17:20 | 7.64426 | -78.13804 | 31218 ft | 464 kts | 312° |
| 2026-05-05 17:20 | 7.66543 | -78.16264 | 30664 ft | 465 kts | 312° |
| 2026-05-05 17:20 | 7.68667 | -78.18733 | 30108 ft | 467 kts | 312° |
| 2026-05-05 17:21 | 7.70801 | -78.21213 | 29482 ft | 468 kts | 312° |
| 2026-05-05 17:21 | 7.72941 | -78.23700 | 28893 ft | 470 kts | 312° |
| 2026-05-05 17:21 | 7.75086 | -78.26195 | 28363 ft | 472 kts | 312° |
| 2026-05-05 17:22 | 7.79333 | -78.31135 | 27335 ft | 462 kts | 312° |
| 2026-05-05 17:22 | 7.81428 | -78.33572 | 26827 ft | 456 kts | 312° |
| 2026-05-05 17:22 | 7.83493 | -78.35975 | 26328 ft | 451 kts | 312° |
| 2026-05-05 17:22 | 7.85534 | -78.38350 | 25842 ft | 446 kts | 312° |
| 2026-05-05 17:23 | 7.87553 | -78.40700 | 25356 ft | 441 kts | 312° |
| 2026-05-05 17:23 | 7.89538 | -78.43010 | 24883 ft | 428 kts | 312° |
| 2026-05-05 17:23 | 7.91452 | -78.45240 | 24451 ft | 413 kts | 312° |
| 2026-05-05 17:23 | 7.93304 | -78.47396 | 24029 ft | 400 kts | 312° |
| 2026-05-05 17:24 | 7.95104 | -78.49493 | 23608 ft | 389 kts | 312° |
| 2026-05-05 17:24 | 7.96850 | -78.51526 | 23144 ft | 378 kts | 312° |
| 2026-05-05 17:24 | 7.98544 | -78.53499 | 22726 ft | 367 kts | 312° |
| 2026-05-05 17:24 | 8.00209 | -78.55439 | 22355 ft | 365 kts | 312° |
| 2026-05-05 17:25 | 8.01872 | -78.57377 | 21963 ft | 364 kts | 312° |
| 2026-05-05 17:25 | 8.02968 | -78.58655 | 21718 ft | 363 kts | 312° |
| 2026-05-05 17:25 | 8.05155 | -78.61204 | 21216 ft | 361 kts | 312° |
| 2026-05-05 17:25 | 8.06799 | -78.63120 | 20835 ft | 360 kts | 312° |